Time;durP1;ratioP1;P1;durP2;ratioP2;P2;SDS_P1;SDS_P2;PMS_P1;PMS_P2;Temp;Humidity;BMP_temperature;BMP_pressure;BME280_temperature;BME280_humidity;BME280_pressure;Samples;Min_cycle;Max_cycle;Signal;HPM_P1;HPM_P2
2023/05/23 00:01:36;;;;;;;4.65;3.33;;;;;;;16.91;47.13;100310.91;5103002;28;20283;-71
2023/05/23 00:04:04;;;;;;;6.25;4.32;;;;;;;16.90;47.54;100309.22;5104288;27;20517;-71
2023/05/23 00:06:33;;;;;;;9.05;3.38;;;;;;;16.89;47.33;100305.75;5109617;27;20208;-69
2023/05/23 00:09:01;;;;;;;5.32;3.33;;;;;;;16.88;47.62;100305.81;5112179;27;20661;-68
2023/05/23 00:11:30;;;;;;;5.07;3.88;;;;;;;16.86;47.38;100305.00;5108930;27;20196;-68
2023/05/23 00:14:01;;;;;;;8.23;3.70;;;;;;;16.86;47.35;100311.09;5109111;27;20609;-68
2023/05/23 00:16:29;;;;;;;4.60;3.70;;;;;;;16.83;47.50;100305.13;5112163;27;20200;-68
2023/05/23 00:19:00;;;;;;;5.95;3.55;;;;;;;16.75;47.56;100302.75;5113445;28;20319;-68
2023/05/23 00:21:29;;;;;;;5.32;3.80;;;;;;;16.72;47.57;100307.19;5107836;28;20211;-69
2023/05/23 00:23:58;;;;;;;4.95;3.63;;;;;;;16.68;47.24;100296.03;5110613;27;20651;-67
2023/05/23 00:26:28;;;;;;;4.90;3.25;;;;;;;16.68;47.26;100296.03;5111504;27;20200;-69
2023/05/23 00:28:57;;;;;;;5.07;3.33;;;;;;;16.69;46.50;100287.31;5104001;27;20231;-68
2023/05/23 00:31:25;;;;;;;4.80;3.05;;;;;;;16.72;46.89;100294.19;5104744;28;20210;-69
2023/05/23 00:33:53;;;;;;;3.53;3.13;;;;;;;16.74;46.69;100295.84;5110253;27;20195;-68
2023/05/23 00:36:23;;;;;;;6.75;3.72;;;;;;;16.71;46.80;100295.06;5108734;28;20200;-69
2023/05/23 00:38:52;;;;;;;6.82;3.47;;;;;;;16.66;47.11;100292.63;5112152;28;20562;-68
2023/05/23 00:41:20;;;;;;;4.78;3.70;;;;;;;16.60;46.83;100292.81;5107078;28;20731;-67
2023/05/23 00:43:48;;;;;;;3.50;3.20;;;;;;;16.54;47.42;100287.81;5111517;27;20859;-67
2023/05/23 00:46:16;;;;;;;5.13;3.47;;;;;;;16.54;47.67;100288.69;5111009;28;20204;-70
2023/05/23 00:48:44;;;;;;;8.77;3.80;;;;;;;16.52;47.86;100287.00;5107161;28;20689;-72
2023/05/23 00:51:13;;;;;;;4.63;3.75;;;;;;;16.51;47.78;100287.91;5110467;27;20204;-69
2023/05/23 00:53:43;;;;;;;4.90;3.42;;;;;;;16.51;47.39;100293.13;5109608;28;20226;-72
2023/05/23 00:56:12;;;;;;;4.18;3.70;;;;;;;16.47;47.81;100289.75;5104874;28;20196;-69
2023/05/23 00:58:43;;;;;;;5.57;4.07;;;;;;;16.47;47.82;100297.56;5111995;27;20204;-69
2023/05/23 01:01:11;;;;;;;4.15;3.03;;;;;;;16.43;48.34;100289.00;5108394;28;20222;-70
2023/05/23 01:03:39;;;;;;;3.33;3.00;;;;;;;16.42;48.27;100289.94;5107024;28;20223;-69
2023/05/23 01:06:08;;;;;;;5.88;3.35;;;;;;;16.39;48.40;100290.00;5111832;27;20200;-70
2023/05/23 01:08:36;;;;;;;4.38;3.15;;;;;;;16.38;47.41;100288.28;5109678;27;20210;-69
2023/05/23 01:11:14;;;;;;;4.35;3.40;;;;;;;16.33;47.60;100287.59;5112324;28;20597;-69
2023/05/23 01:13:47;;;;;;;4.82;3.28;;;;;;;16.33;47.58;100292.78;5105583;27;20635;-70
2023/05/23 01:16:20;;;;;;;3.95;3.42;;;;;;;16.32;47.50;100293.69;5112094;28;20231;-69
2023/05/23 01:18:56;;;;;;;3.72;3.42;;;;;;;16.29;47.60;100298.16;5109670;28;20207;-69
2023/05/23 01:21:26;;;;;;;8.32;3.45;;;;;;;16.30;47.34;100290.28;5107801;27;20196;-69
2023/05/23 01:24:24;;;;;;;6.93;3.28;;;;;;;16.33;47.16;100294.56;5108978;28;20192;-69
2023/05/23 01:27:08;;;;;;;3.67;3.28;;;;;;;16.38;46.60;100292.66;5108271;28;20203;-70
2023/05/23 01:29:42;;;;;;;3.95;3.42;;;;;;;16.41;46.47;100293.41;5107504;28;20204;-70
2023/05/23 01:32:12;;;;;;;3.63;3.33;;;;;;;16.39;46.95;100289.16;5107740;27;20263;-70
2023/05/23 01:34:41;;;;;;;4.80;3.50;;;;;;;16.37;46.97;100281.41;5104891;27;20670;-70
2023/05/23 01:37:10;;;;;;;4.00;3.33;;;;;;;16.35;46.15;100283.22;5107867;28;20224;-69
2023/05/23 01:39:38;;;;;;;4.93;3.72;;;;;;;16.34;46.90;100285.84;5108788;27;20200;-69
2023/05/23 01:42:08;;;;;;;5.28;3.70;;;;;;;16.31;47.16;100286.81;5110716;27;20207;-69
2023/05/23 01:44:38;;;;;;;4.30;3.38;;;;;;;16.31;46.75;100279.00;5110175;27;20258;-69
2023/05/23 01:47:09;;;;;;;8.32;3.53;;;;;;;16.32;46.71;100277.25;5106527;27;20231;-70
2023/05/23 01:49:38;;;;;;;4.70;3.47;;;;;;;16.32;47.12;100278.09;5106291;28;20204;-68
2023/05/23 01:52:09;;;;;;;4.15;3.47;;;;;;;16.31;46.93;100272.94;5109810;28;20208;-69
2023/05/23 01:54:41;;;;;;;4.15;3.40;;;;;;;16.25;46.55;100261.00;5126243;27;20657;-71
2023/05/23 01:57:10;;;;;;;7.28;3.60;;;;;;;16.27;46.38;100273.94;5103515;28;21568;-69
2023/05/23 01:59:40;;;;;;;6.03;3.35;;;;;;;16.27;46.40;100264.38;5108034;27;20746;-70
2023/05/23 02:02:10;;;;;;;4.15;3.55;;;;;;;16.27;46.36;100269.56;5111363;28;20274;-70
2023/05/23 02:04:38;;;;;;;3.75;3.28;;;;;;;16.28;45.98;100262.66;5102777;28;20200;-69
2023/05/23 02:07:06;;;;;;;4.60;3.20;;;;;;;16.28;46.66;100266.09;5109863;27;20593;-70
2023/05/23 02:09:34;;;;;;;6.43;4.03;;;;;;;16.25;46.57;100266.19;5110493;28;20645;-70
2023/05/23 02:12:02;;;;;;;4.95;3.75;;;;;;;16.21;46.87;100264.59;5110615;28;20211;-70
2023/05/23 02:14:30;;;;;;;4.85;3.33;;;;;;;16.18;46.44;100265.53;5109590;28;20307;-69
2023/05/23 02:16:59;;;;;;;6.93;3.17;;;;;;;16.18;46.66;100264.69;5107062;28;20592;-70
2023/05/23 02:19:27;;;;;;;7.10;3.22;;;;;;;16.15;46.48;100259.56;5107850;28;20204;-70
2023/05/23 02:21:55;;;;;;;4.85;3.53;;;;;;;16.13;46.88;100254.44;5108363;28;20192;-69
2023/05/23 02:24:23;;;;;;;3.53;3.22;;;;;;;16.13;46.66;100251.84;5110661;28;20199;-68
2023/05/23 02:26:51;;;;;;;6.18;3.55;;;;;;;16.17;46.13;100253.44;5107054;28;20204;-72
2023/05/23 02:29:19;;;;;;;5.80;3.50;;;;;;;16.17;46.29;100247.38;5106138;28;20208;-68
2023/05/23 02:31:47;;;;;;;3.58;3.17;;;;;;;16.15;46.41;100249.16;5100906;28;20231;-69
2023/05/23 02:34:17;;;;;;;6.03;3.70;;;;;;;16.13;46.86;100241.44;5111139;28;20574;-70
2023/05/23 02:36:46;;;;;;;4.88;3.75;;;;;;;16.12;46.47;100238.84;5109809;28;20203;-69
2023/05/23 02:39:14;;;;;;;4.88;3.47;;;;;;;16.11;46.48;100244.97;5110480;28;20649;-69
2023/05/23 02:41:42;;;;;;;4.35;3.33;;;;;;;16.07;46.64;100245.97;5109491;28;20219;-71
2023/05/23 02:44:10;;;;;;;4.43;3.15;;;;;;;16.04;46.57;100244.31;5110806;28;20204;-71
2023/05/23 02:46:38;;;;;;;5.63;3.80;;;;;;;16.04;46.91;100246.06;5110609;28;20214;-69
2023/05/23 02:49:06;;;;;;;4.90;2.95;;;;;;;16.03;47.07;100239.16;5107262;28;20706;-69
2023/05/23 02:51:35;;;;;;;6.85;3.55;;;;;;;15.98;46.99;100235.84;5105641;28;20211;-69
2023/05/23 02:54:03;;;;;;;3.88;3.03;;;;;;;15.98;47.29;100241.03;5110484;28;21934;-71
2023/05/23 02:56:31;;;;;;;5.50;3.33;;;;;;;16.00;47.30;100239.25;5108119;28;20666;-69
2023/05/23 02:58:59;;;;;;;5.20;3.90;;;;;;;15.99;47.50;100235.81;5106893;28;20207;-69
2023/05/23 03:01:27;;;;;;;4.18;3.53;;;;;;;16.00;47.22;100239.25;5102945;28;20200;-71
2023/05/23 03:03:55;;;;;;;5.38;3.15;;;;;;;15.99;47.78;100240.16;5104106;28;20196;-71
2023/05/23 03:06:24;;;;;;;4.85;3.78;;;;;;;15.98;47.86;100234.13;5103798;28;20207;-70
2023/05/23 03:08:55;;;;;;;7.90;3.45;;;;;;;15.99;47.58;100230.59;5108960;28;20231;-72
2023/05/23 03:11:24;;;;;;;5.50;3.85;;;;;;;16.03;46.58;100233.97;5108739;28;20231;-71
2023/05/23 03:13:52;;;;;;;4.55;3.55;;;;;;;16.08;46.73;100235.50;5110018;28;20215;-71
2023/05/23 03:16:20;;;;;;;4.13;3.13;;;;;;;16.10;46.38;100235.47;5110534;28;20200;-71
2023/05/23 03:18:48;;;;;;;5.30;3.42;;;;;;;16.13;46.54;100235.38;5109382;28;20200;-71
2023/05/23 03:21:16;;;;;;;7.00;3.70;;;;;;;16.16;46.92;100236.16;5108423;28;20214;-69
2023/05/23 03:23:44;;;;;;;7.50;3.58;;;;;;;16.21;47.51;100240.34;5106476;28;20631;-69
2023/05/23 03:26:13;;;;;;;4.75;3.33;;;;;;;16.25;46.37;100234.16;5110026;28;20286;-69
2023/05/23 03:28:41;;;;;;;7.50;3.03;;;;;;;16.26;46.13;100239.28;5106669;28;20655;-70
2023/05/23 03:31:09;;;;;;;6.03;3.17;;;;;;;16.30;46.37;100243.47;5108211;28;20204;-69
2023/05/23 03:33:37;;;;;;;4.43;2.70;;;;;;;16.35;45.74;100244.19;5109504;28;20326;-69
2023/05/23 03:36:07;;;;;;;4.10;2.97;;;;;;;16.42;45.44;100243.09;5108145;28;20206;-70
2023/05/23 03:38:35;;;;;;;4.72;3.67;;;;;;;16.45;45.61;100246.50;5110286;28;20651;-70
2023/05/23 03:41:03;;;;;;;6.32;3.67;;;;;;;16.46;45.71;100241.25;5105782;28;20579;-70
2023/05/23 03:43:32;;;;;;;4.60;3.13;;;;;;;16.50;45.63;100247.22;5107756;28;20216;-69
2023/05/23 03:46:00;;;;;;;4.80;3.20;;;;;;;16.52;45.35;100241.03;5102311;28;20228;-70
2023/05/23 03:48:29;;;;;;;5.05;3.30;;;;;;;16.56;44.83;100241.78;5109963;28;20202;-69
2023/05/23 03:50:58;;;;;;;5.57;3.47;;;;;;;16.60;44.51;100230.38;5107058;28;20235;-70
2023/05/23 03:53:26;;;;;;;3.90;3.53;;;;;;;16.62;44.13;100224.22;5108409;28;20200;-69
2023/05/23 03:55:54;;;;;;;4.05;2.83;;;;;;;16.68;43.99;100236.19;5107400;28;20288;-69
2023/05/23 03:58:22;;;;;;;3.63;2.70;;;;;;;16.73;43.82;100230.81;5097005;28;20286;-69
2023/05/23 04:00:55;;;;;;;6.43;3.40;;;;;;;16.80;43.62;100233.19;5106382;28;20286;-70
2023/05/23 04:03:24;;;;;;;4.95;3.28;;;;;;;16.87;43.70;100229.50;5110220;28;20294;-70
2023/05/23 04:05:53;;;;;;;6.20;3.42;;;;;;;16.97;43.81;100226.53;5112129;27;20215;-70
2023/05/23 04:08:21;;;;;;;4.60;3.03;;;;;;;17.07;43.27;100225.34;5101982;27;20206;-69
2023/05/23 04:10:49;;;;;;;3.63;3.20;;;;;;;17.19;42.85;100222.28;5112734;27;20669;-70
2023/05/23 04:13:17;;;;;;;4.30;2.83;;;;;;;17.31;42.89;100221.84;5113692;27;20192;-69
2023/05/23 04:15:46;;;;;;;3.60;3.20;;;;;;;17.43;42.59;100220.56;5110977;27;20618;-69
2023/05/23 04:18:16;;;;;;;5.45;3.00;;;;;;;17.58;42.65;100216.53;5112003;28;20647;-70
2023/05/23 04:20:44;;;;;;;5.25;3.08;;;;;;;17.67;41.85;100217.91;5113318;28;20264;-70
2023/05/23 04:23:12;;;;;;;3.35;2.88;;;;;;;17.74;41.39;100222.84;5109321;28;20654;-69
2023/05/23 04:25:40;;;;;;;4.93;3.35;;;;;;;17.82;41.35;100220.84;5114249;28;20673;-70
2023/05/23 04:28:09;;;;;;;5.65;3.58;;;;;;;17.90;41.38;100217.94;5109353;28;20659;-71
2023/05/23 04:30:37;;;;;;;7.43;3.33;;;;;;;17.95;41.22;100221.19;5112401;28;20204;-70
2023/05/23 04:33:05;;;;;;;4.65;3.47;;;;;;;18.04;41.34;100214.75;5110560;28;20240;-69
2023/05/23 04:35:37;;;;;;;5.38;3.35;;;;;;;18.12;40.84;100214.50;5113609;28;20208;-69
2023/05/23 04:38:05;;;;;;;7.30;3.30;;;;;;;18.20;40.85;100218.47;5110162;27;20580;-69
2023/05/23 04:40:33;;;;;;;5.03;3.40;;;;;;;18.34;40.69;100218.75;5105096;27;20253;-69
2023/05/23 04:43:02;;;;;;;5.03;3.63;;;;;;;18.48;40.80;100214.72;5112277;27;20647;-69
2023/05/23 04:45:30;;;;;;;3.45;3.15;;;;;;;18.61;40.45;100213.31;5111381;28;20566;-71
2023/05/23 04:47:58;;;;;;;8.63;3.80;;;;;;;18.78;40.40;100213.50;5111376;28;20211;-69
2023/05/23 04:50:30;;;;;;;5.30;3.10;;;;;;;18.95;40.01;100214.50;5110564;27;20204;-70
2023/05/23 04:52:59;;;;;;;6.15;3.00;;;;;;;19.10;39.86;100210.38;5112209;27;20663;-67
2023/05/23 04:55:27;;;;;;;3.83;3.30;;;;;;;19.23;39.23;100204.56;5108922;27;20862;-67
2023/05/23 04:57:56;;;;;;;3.92;3.10;;;;;;;19.40;38.81;100211.63;5109946;27;20198;-68
2023/05/23 05:00:24;;;;;;;3.60;2.85;;;;;;;19.63;38.22;100213.22;5104492;27;20273;-68
2023/05/23 05:02:52;;;;;;;7.25;3.55;;;;;;;20.00;37.51;100211.50;5101909;28;20655;-69
2023/05/23 05:05:20;;;;;;;4.20;3.10;;;;;;;20.67;36.96;100213.44;5111606;28;20249;-70
2023/05/23 05:07:48;;;;;;;3.83;3.20;;;;;;;21.47;35.53;100201.44;5108464;27;20218;-69
2023/05/23 05:10:17;;;;;;;6.72;3.47;;;;;;;22.14;33.74;100197.72;5108618;28;20227;-71
2023/05/23 05:12:48;;;;;;;7.93;3.00;;;;;;;22.72;32.59;100193.47;5102845;28;20286;-69
2023/05/23 05:15:17;;;;;;;4.13;3.10;;;;;;;23.58;31.18;100188.22;5102163;28;20216;-68
2023/05/23 05:17:45;;;;;;;4.68;3.13;;;;;;;24.86;29.41;100186.84;5101136;28;20223;-67
2023/05/23 05:20:16;;;;;;;6.03;3.47;;;;;;;26.34;27.52;100183.28;5109457;28;20214;-73
2023/05/23 05:22:44;;;;;;;5.15;3.38;;;;;;;27.97;25.54;100176.72;5110876;28;20579;-70
2023/05/23 05:25:12;;;;;;;2.90;2.63;;;;;;;29.43;23.09;100169.66;5113148;28;20585;-71
2023/05/23 05:27:42;;;;;;;6.47;3.63;;;;;;;30.77;21.61;100169.81;5101597;28;20204;-70
2023/05/23 05:30:13;;;;;;;5.82;3.33;;;;;;;32.26;19.94;100172.19;5107481;28;20219;-71
2023/05/23 05:32:44;;;;;;;5.65;2.95;;;;;;;33.52;18.82;100167.28;5107413;28;20317;-68
2023/05/23 05:35:13;;;;;;;3.13;2.67;;;;;;;34.44;17.61;100168.84;5110689;28;20212;-71
2023/05/23 05:37:41;;;;;;;5.47;4.22;;;;;;;35.26;16.75;100174.03;5111531;28;20204;-67
2023/05/23 05:40:09;;;;;;;7.28;3.35;;;;;;;35.97;16.23;100172.91;5103719;28;20196;-70
2023/05/23 05:42:37;;;;;;;5.25;3.33;;;;;;;36.67;15.36;100179.06;5110430;28;20228;-68
2023/05/23 05:45:07;;;;;;;6.28;3.30;;;;;;;36.98;14.58;100166.31;5110191;28;20212;-68
2023/05/23 05:47:37;;;;;;;4.78;3.22;;;;;;;37.38;15.01;100169.50;5103140;28;20219;-69
2023/05/23 05:50:06;;;;;;;7.53;3.25;;;;;;;37.56;14.53;100162.88;5105019;28;20310;-68
2023/05/23 05:52:37;;;;;;;4.47;2.95;;;;;;;37.68;13.93;100166.75;5110849;28;20690;-71
2023/05/23 05:55:06;;;;;;;9.35;3.40;;;;;;;37.64;13.83;100170.84;5110257;28;20220;-67
2023/05/23 05:57:37;;;;;;;6.68;3.17;;;;;;;37.48;14.47;100170.03;5105058;28;21123;-69
2023/05/23 06:00:12;;;;;;;6.32;2.67;;;;;;;37.33;14.39;100168.38;5106773;28;20208;-69
2023/05/23 06:02:41;;;;;;;4.60;2.85;;;;;;;37.52;13.87;100161.59;5108828;28;20737;-70
2023/05/23 06:05:11;;;;;;;4.38;3.30;;;;;;;37.41;13.82;100161.06;5101141;28;20215;-70
2023/05/23 06:07:39;;;;;;;6.55;2.92;;;;;;;37.34;13.77;100164.66;5110506;28;20207;-69
2023/05/23 06:10:08;;;;;;;4.22;3.08;;;;;;;37.42;13.87;100167.31;5109217;28;20208;-69
2023/05/23 06:12:36;;;;;;;5.80;2.97;;;;;;;37.42;13.93;100162.75;5106642;28;20279;-70
2023/05/23 06:15:05;;;;;;;6.32;3.30;;;;;;;37.78;13.64;100156.50;5105628;28;20315;-66
2023/05/23 06:17:35;;;;;;;5.85;3.00;;;;;;;37.86;14.36;100155.53;5111725;28;20211;-70
2023/05/23 06:20:04;;;;;;;7.32;2.88;;;;;;;37.84;13.66;100153.03;5104780;28;20202;-67
2023/05/23 06:22:32;;;;;;;4.35;3.10;;;;;;;37.32;14.36;100156.81;5109658;28;20713;-67
2023/05/23 06:25:00;;;;;;;7.57;3.30;;;;;;;36.19;14.32;100154.34;5111777;28;20231;-69
2023/05/23 06:27:28;;;;;;;5.32;2.80;;;;;;;34.82;15.84;100159.25;5110983;28;20196;-67
2023/05/23 06:29:56;;;;;;;4.72;3.00;;;;;;;33.84;16.59;100156.63;5104518;27;20438;-68
2023/05/23 06:32:24;;;;;;;5.93;2.90;;;;;;;33.05;18.36;100160.56;5104066;28;20239;-68
2023/05/23 06:34:54;;;;;;;8.75;3.55;;;;;;;32.45;18.59;100157.88;5102637;28;20204;-66
2023/05/23 06:37:22;;;;;;;7.70;2.75;;;;;;;31.87;19.08;100158.38;5109480;28;20207;-67
2023/05/23 06:39:49;;;;;;;4.18;2.67;;;;;;;31.41;19.81;100154.84;5100793;28;20646;-70
2023/05/23 06:42:17;;;;;;;3.38;2.60;;;;;;;31.01;19.97;100156.03;5109881;28;20272;-68
2023/05/23 06:44:45;;;;;;;6.03;2.60;;;;;;;30.66;20.12;100149.53;5109834;28;20207;-67
2023/05/23 06:47:13;;;;;;;3.13;2.75;;;;;;;30.30;20.55;100143.16;5109918;28;20234;-66
2023/05/23 06:49:42;;;;;;;3.03;2.55;;;;;;;29.98;20.82;100138.97;5103718;28;20211;-66
2023/05/23 06:52:11;;;;;;;4.20;2.65;;;;;;;29.68;20.81;100141.75;5104062;28;20218;-66
2023/05/23 06:54:39;;;;;;;5.15;2.67;;;;;;;29.60;21.05;100137.13;5108090;28;20200;-67
2023/05/23 06:57:07;;;;;;;3.63;2.70;;;;;;;29.98;20.80;100140.81;5109204;28;20578;-66
2023/05/23 06:59:35;;;;;;;4.78;2.65;;;;;;;30.52;19.92;100132.19;5101142;28;20619;-67
2023/05/23 07:02:03;;;;;;;6.18;3.03;;;;;;;31.23;19.32;100134.34;5104646;28;20420;-66
2023/05/23 07:04:31;;;;;;;5.45;2.65;;;;;;;32.01;18.47;100127.69;5105241;28;20216;-67
2023/05/23 07:06:59;;;;;;;3.25;2.80;;;;;;;32.77;18.00;100122.50;5105507;28;20196;-65
2023/05/23 07:09:28;;;;;;;3.03;2.42;;;;;;;33.40;16.65;100115.97;5106777;28;20671;-65
2023/05/23 07:11:57;;;;;;;4.50;2.40;;;;;;;33.89;16.15;100114.19;5100569;28;20647;-64
2023/05/23 07:14:25;;;;;;;4.32;2.60;;;;;;;34.11;15.64;100118.06;5102836;28;20222;-65
2023/05/23 07:16:52;;;;;;;4.53;2.53;;;;;;;34.66;15.98;100108.47;5101748;28;20234;-67
2023/05/23 07:19:20;;;;;;;3.70;2.38;;;;;;;35.20;15.17;100105.91;5100628;28;20574;-68
2023/05/23 07:21:48;;;;;;;3.88;2.05;;;;;;;35.47;14.82;100107.25;5103466;28;20570;-68
2023/05/23 07:24:16;;;;;;;4.40;2.25;;;;;;;35.69;14.52;100107.47;5103420;28;20207;-67
2023/05/23 07:26:46;;;;;;;6.65;2.50;;;;;;;35.60;14.26;100106.66;5105418;28;20210;-68
2023/05/23 07:29:13;;;;;;;3.17;2.10;;;;;;;35.86;13.63;100108.97;5106311;28;20235;-69
2023/05/23 07:31:41;;;;;;;4.45;2.33;;;;;;;35.54;14.17;100105.56;5106038;28;20725;-67
2023/05/23 07:34:09;;;;;;;4.47;2.20;;;;;;;35.43;14.59;100100.56;5105586;28;20200;-67
2023/05/23 07:36:39;;;;;;;2.03;1.85;;;;;;;35.26;14.34;100099.84;5108252;28;20212;-66
2023/05/23 07:39:08;;;;;;;4.05;2.33;;;;;;;34.90;14.86;100099.47;5111827;28;20646;-67
2023/05/23 07:41:35;;;;;;;2.90;2.05;;;;;;;34.30;15.33;100099.97;5107878;28;20214;-65
2023/05/23 07:44:05;;;;;;;5.13;2.13;;;;;;;33.95;16.24;100096.66;5112661;28;20734;-68
2023/05/23 07:46:33;;;;;;;4.10;2.40;;;;;;;33.70;15.97;100090.47;5108102;28;20278;-67
2023/05/23 07:49:01;;;;;;;5.05;2.25;;;;;;;33.27;16.91;100086.19;5109270;28;20203;-67
2023/05/23 07:51:30;;;;;;;9.88;2.40;;;;;;;32.23;17.66;100090.69;5105399;28;20745;-67
2023/05/23 07:53:58;;;;;;;2.78;2.30;;;;;;;31.43;18.51;100091.63;5102128;27;20200;-67
2023/05/23 07:56:26;;;;;;;3.90;2.38;;;;;;;30.64;19.41;100090.34;5106507;28;20212;-68
2023/05/23 07:58:54;;;;;;;5.30;2.15;;;;;;;30.09;20.30;100082.19;5109089;28;20203;-67
2023/05/23 08:01:23;;;;;;;4.22;2.45;;;;;;;29.70;21.13;100090.19;5108850;28;20207;-68
2023/05/23 08:03:51;;;;;;;2.95;2.60;;;;;;;28.77;21.54;100075.41;5106979;28;20608;-68
2023/05/23 08:06:20;;;;;;;5.07;2.72;;;;;;;27.63;23.31;100091.22;5107072;28;20212;-66
2023/05/23 08:08:48;;;;;;;3.58;2.40;;;;;;;27.02;24.16;100094.31;5106713;28;20204;-66
2023/05/23 08:11:16;;;;;;;3.95;2.50;;;;;;;26.59;24.59;100086.31;5105618;28;20216;-73
2023/05/23 08:13:44;;;;;;;4.65;2.78;;;;;;;26.14;25.17;100089.69;5096278;28;20213;-69
2023/05/23 08:16:12;;;;;;;3.85;2.50;;;;;;;25.99;25.45;100078.47;5100433;28;20223;-69
2023/05/23 08:18:41;;;;;;;6.55;2.25;;;;;;;26.01;25.47;100087.13;5097489;28;20203;-71
2023/05/23 08:21:09;;;;;;;3.33;2.22;;;;;;;25.93;25.61;100078.94;5107181;28;20211;-71
2023/05/23 08:23:37;;;;;;;3.90;2.13;;;;;;;25.74;25.54;100089.16;5107122;28;20204;-72
2023/05/23 08:26:06;;;;;;;2.92;2.60;;;;;;;25.54;26.41;100080.06;5102564;28;20371;-71
2023/05/23 08:28:34;;;;;;;4.95;2.33;;;;;;;25.41;26.20;100088.03;5106546;28;20253;-71
2023/05/23 08:31:02;;;;;;;3.67;2.40;;;;;;;25.30;26.55;100075.63;5111194;28;20207;-72
2023/05/23 08:33:30;;;;;;;3.42;2.40;;;;;;;25.23;26.43;100073.53;5107675;28;20278;-72
2023/05/23 08:36:00;;;;;;;2.80;2.45;;;;;;;24.98;26.70;100056.81;5112165;28;20215;-72
2023/05/23 08:38:28;;;;;;;2.92;2.53;;;;;;;24.97;27.23;100063.03;5087989;28;20260;-72
2023/05/23 08:40:57;;;;;;;3.60;2.08;;;;;;;25.06;27.18;100058.88;5107566;28;20681;-72
2023/05/23 08:43:25;;;;;;;2.97;2.15;;;;;;;25.08;26.26;100066.72;5111090;28;20282;-74
2023/05/23 08:45:53;;;;;;;3.58;2.05;;;;;;;25.05;26.18;100057.22;5111534;28;20684;-72
2023/05/23 08:48:22;;;;;;;5.38;2.78;;;;;;;25.11;26.78;100058.59;5103677;28;20207;-73
2023/05/23 08:50:52;;;;;;;3.17;2.03;;;;;;;25.14;27.06;100053.94;5107105;28;20561;-72
2023/05/23 08:53:26;;;;;;;5.38;2.50;;;;;;;25.33;27.07;100058.72;5109800;28;20586;-73
2023/05/23 08:55:57;;;;;;;5.00;2.08;;;;;;;25.45;27.09;100057.00;5102968;28;20288;-73
2023/05/23 08:58:28;;;;;;;8.93;2.72;;;;;;;25.21;26.78;100060.44;5101720;28;20204;-73
2023/05/23 09:00:56;;;;;;;4.07;2.20;;;;;;;25.04;26.09;100045.84;5103716;28;20234;-73
2023/05/23 09:03:26;;;;;;;2.65;2.22;;;;;;;24.99;26.81;100049.75;5113323;28;20196;-72
2023/05/23 09:05:54;;;;;;;4.95;2.45;;;;;;;25.07;27.34;100047.38;5111430;28;20203;-72
2023/05/23 09:08:24;;;;;;;3.75;2.38;;;;;;;25.14;27.54;100048.66;5109069;28;20659;-73
2023/05/23 09:10:53;;;;;;;4.78;2.65;;;;;;;25.24;27.32;100054.97;5111037;28;20441;-68
2023/05/23 09:13:21;;;;;;;3.53;1.98;;;;;;;25.42;24.95;100044.03;5113311;28;20653;-66
2023/05/23 09:16:03;;;;;;;2.20;1.63;;;;;;;25.53;23.66;100046.72;5110543;28;20209;-66
2023/05/23 09:18:35;;;;;;;2.92;2.35;;;;;;;25.62;24.60;100047.81;5103398;28;20218;-65
2023/05/23 09:21:03;;;;;;;2.95;2.03;;;;;;;25.71;25.64;100044.53;5112000;28;20282;-64
2023/05/23 09:23:34;;;;;;;2.42;2.03;;;;;;;25.58;25.64;100041.09;5112534;28;20204;-69
2023/05/23 09:26:03;;;;;;;3.92;2.10;;;;;;;25.42;25.97;100041.41;5110638;28;20208;-63
2023/05/23 09:28:33;;;;;;;2.30;2.10;;;;;;;25.32;25.04;100041.22;5107737;28;20222;-65
2023/05/23 09:31:01;;;;;;;3.97;1.98;;;;;;;25.11;25.08;100043.59;5109928;28;20196;-65
2023/05/23 09:33:35;;;;;;;3.38;1.92;;;;;;;24.97;24.43;100034.03;5110580;28;20274;-66
2023/05/23 09:36:04;;;;;;;3.63;1.75;;;;;;;24.73;23.55;100039.25;5106304;28;20662;-64
2023/05/23 09:38:38;;;;;;;4.65;1.73;;;;;;;24.55;24.06;100046.66;5103128;28;20240;-71
2023/05/23 09:41:06;;;;;;;2.65;2.00;;;;;;;24.74;24.66;100040.09;5109009;28;20200;-70
2023/05/23 09:43:35;;;;;;;3.25;1.70;;;;;;;24.95;24.88;100030.66;5093843;28;20215;-70
2023/05/23 09:46:08;;;;;;;2.55;1.63;;;;;;;25.42;24.60;100023.75;5104689;28;20667;-71
2023/05/23 09:48:36;;;;;;;1.95;1.80;;;;;;;25.72;23.22;100028.56;5104671;28;20291;-72
2023/05/23 09:51:04;;;;;;;3.72;1.90;;;;;;;26.45;21.86;100032.69;5107462;28;20378;-70
2023/05/23 09:53:34;;;;;;;4.22;2.25;;;;;;;27.25;21.20;100026.41;5104902;28;20991;-72
2023/05/23 09:56:03;;;;;;;2.65;2.42;;;;;;;28.49;20.45;100017.78;5106609;28;20658;-71
2023/05/23 09:58:33;;;;;;;2.55;1.98;;;;;;;29.70;19.21;100018.47;5101546;28;20212;-71
2023/05/23 10:01:03;;;;;;;5.57;2.17;;;;;;;31.07;17.66;100013.53;5095350;28;20295;-72
2023/05/23 10:03:34;;;;;;;3.30;2.00;;;;;;;32.07;16.45;100010.56;5107236;28;20559;-71
2023/05/23 10:06:08;;;;;;;1.80;1.60;;;;;;;31.76;16.47;100003.00;5108807;28;20217;-71
2023/05/23 10:08:43;;;;;;;3.65;2.05;;;;;;;30.59;17.76;100015.44;5101339;28;20236;-71
2023/05/23 10:11:40;;;;;;;2.13;1.88;;;;;;;30.57;16.85;100012.09;5110886;28;20195;-72
2023/05/23 10:14:10;;;;;;;2.13;1.70;;;;;;;29.71;18.39;100022.78;5111181;28;20215;-71
2023/05/23 10:16:46;;;;;;;2.15;1.88;;;;;;;28.65;19.44;100018.16;5108989;28;20211;-71
2023/05/23 10:19:23;;;;;;;4.65;2.10;;;;;;;28.00;19.82;100028.13;5107480;28;20275;-71
2023/05/23 10:21:59;;;;;;;5.10;1.90;;;;;;;27.18;21.16;100020.75;5108995;28;20286;-73
2023/05/23 10:24:29;;;;;;;3.60;2.08;;;;;;;27.85;21.30;100019.66;5104368;28;20199;-71
2023/05/23 10:26:58;;;;;;;2.50;1.98;;;;;;;29.48;19.25;100016.06;5105906;28;20195;-70
2023/05/23 10:29:28;;;;;;;2.95;2.30;;;;;;;30.48;17.95;100010.31;5109484;28;20200;-70
2023/05/23 10:31:57;;;;;;;3.08;2.30;;;;;;;30.07;18.09;100007.06;5104712;28;20313;-70
2023/05/23 10:34:30;;;;;;;2.30;2.10;;;;;;;29.77;18.55;100010.78;5104593;28;20493;-71
2023/05/23 10:37:03;;;;;;;3.72;1.92;;;;;;;30.38;18.72;99996.22;5105143;28;20204;-70
2023/05/23 10:39:49;;;;;;;4.07;1.77;;;;;;;31.24;18.20;100002.88;5108094;28;20206;-70
2023/05/23 10:42:23;;;;;;;2.65;2.35;;;;;;;31.12;17.50;99997.97;5101329;28;20196;-71
2023/05/23 10:44:51;;;;;;;1.83;1.73;;;;;;;30.35;18.13;99999.19;5107179;28;20291;-70
2023/05/23 10:47:28;;;;;;;2.60;2.40;;;;;;;30.39;18.56;100006.72;5108078;28;20204;-70
2023/05/23 10:49:56;;;;;;;2.78;2.00;;;;;;;30.89;17.26;99997.53;5108730;28;20642;-71
2023/05/23 10:52:26;;;;;;;3.75;1.85;;;;;;;31.65;16.50;100005.09;5098256;28;20207;-71
2023/05/23 10:54:55;;;;;;;2.95;1.88;;;;;;;32.94;15.89;99988.16;5111246;28;20651;-70
2023/05/23 10:57:27;;;;;;;2.42;1.80;;;;;;;34.46;14.57;99995.56;5107984;28;20201;-71
2023/05/23 10:59:55;;;;;;;5.00;2.20;;;;;;;35.56;13.80;99988.25;5101365;28;20210;-72
2023/05/23 11:02:26;;;;;;;1.98;1.75;;;;;;;36.43;13.15;99985.03;5110917;28;20239;-70
2023/05/23 11:05:21;;;;;;;4.18;2.30;;;;;;;37.19;13.12;99977.44;5110271;28;20272;-72
2023/05/23 11:08:07;;;;;;;3.17;1.88;;;;;;;37.23;12.84;99980.59;5110962;28;20231;-69
2023/05/23 11:10:58;;;;;;;2.83;2.10;;;;;;;37.04;12.48;99973.16;5109984;28;20313;-72
2023/05/23 11:13:47;;;;;;;2.60;1.95;;;;;;;36.44;13.11;99973.25;5112246;28;20565;-69
2023/05/23 11:16:24;;;;;;;2.85;1.90;;;;;;;34.27;14.39;99967.41;5110622;28;20575;-71
2023/05/23 11:18:52;;;;;;;2.22;1.75;;;;;;;33.34;15.63;99975.03;5095070;28;20226;-70
2023/05/23 11:21:22;;;;;;;3.25;2.08;;;;;;;33.08;15.42;99978.69;5096067;28;20747;-71
2023/05/23 11:23:54;;;;;;;3.80;1.80;;;;;;;32.21;15.87;99977.16;5094263;28;20576;-69
2023/05/23 11:26:33;;;;;;;4.15;2.42;;;;;;;31.77;17.37;99970.03;5077753;28;20677;-70
2023/05/23 11:29:02;;;;;;;2.60;2.22;;;;;;;31.35;17.66;99971.72;5096515;28;20199;-73
2023/05/23 11:31:31;;;;;;;4.80;2.28;;;;;;;30.82;17.70;99977.81;5093080;28;20200;-70
2023/05/23 11:33:59;;;;;;;3.80;2.15;;;;;;;30.42;17.94;99974.53;5101282;28;20286;-69
2023/05/23 11:36:27;;;;;;;3.05;2.10;;;;;;;30.30;19.13;99971.22;5114020;28;20522;-61
2023/05/23 11:38:55;;;;;;;3.17;2.10;;;;;;;30.28;19.34;99970.53;5114500;28;20597;-69